createdAt,value
2023-04-05T00:01:30.963Z,40.96
2023-04-05T00:03:58.128Z,40.93
2023-04-05T00:06:28.854Z,40.87
2023-04-05T00:08:58.308Z,40.94
2023-04-05T00:11:25.204Z,41.04
2023-04-05T00:13:51.539Z,40.99
2023-04-05T00:16:17.996Z,41.05
2023-04-05T00:18:51.426Z,41.09
2023-04-05T00:21:18.157Z,41.12
2023-04-05T00:23:45.106Z,40.94
2023-04-05T00:26:11.664Z,41.16
2023-04-05T00:28:40.781Z,41.05
2023-04-05T00:31:07.102Z,40.98
2023-04-05T00:33:33.575Z,41.13
2023-04-05T00:36:10.088Z,41.04
2023-04-05T00:38:36.453Z,40.90
2023-04-05T00:41:02.807Z,41.08
2023-04-05T00:43:29.191Z,41.01
2023-04-05T00:45:56.309Z,41.12
2023-04-05T00:48:22.675Z,41.15
2023-04-05T00:50:49.217Z,41.20
2023-04-05T00:53:18.441Z,41.29
2023-04-05T00:55:45.290Z,41.21
2023-04-05T00:58:11.625Z,41.02
2023-04-05T01:00:38.808Z,41.16
2023-04-05T01:03:05.286Z,41.24
2023-04-05T01:05:44.359Z,41.10
2023-04-05T01:08:28.971Z,41.16
2023-04-05T01:10:55.918Z,41.09
2023-04-05T01:13:22.754Z,41.03
2023-04-05T01:15:49.086Z,41.22
2023-04-05T01:18:15.436Z,41.15
2023-04-05T01:20:52.947Z,41.24
2023-04-05T01:23:19.224Z,40.97
2023-04-05T01:25:59.941Z,41.14
2023-04-05T01:28:35.806Z,41.08
2023-04-05T01:31:06.625Z,41.22
2023-04-05T01:33:32.924Z,41.16
2023-04-05T01:36:19.451Z,41.17
2023-04-05T01:38:46.319Z,41.17
2023-04-05T01:41:12.626Z,41.26
2023-04-05T01:43:38.969Z,41.31
2023-04-05T01:46:05.577Z,41.11
2023-04-05T01:48:32.344Z,41.27
2023-04-05T01:51:00.103Z,41.07
2023-04-05T01:53:26.495Z,41.21
2023-04-05T01:55:52.825Z,41.12
2023-04-05T01:58:19.188Z,41.13
2023-04-05T02:00:46.190Z,41.06
2023-04-05T02:03:12.694Z,41.12
2023-04-05T02:05:39.122Z,41.26
2023-04-05T02:08:05.467Z,41.12
2023-04-05T02:10:31.825Z,41.12
2023-04-05T02:12:58.248Z,41.16
2023-04-05T02:19:23.004Z,41.32
2023-04-05T02:21:52.326Z,41.36
2023-04-05T02:24:19.213Z,41.31
2023-04-05T02:26:45.550Z,41.22
2023-04-05T02:29:11.903Z,41.16
2023-04-05T02:31:38.294Z,41.04
2023-04-05T02:34:05.824Z,41.15
2023-04-05T02:36:32.141Z,41.13
2023-04-05T02:38:58.473Z,41.18
2023-04-05T02:41:25.977Z,41.21
2023-04-05T02:43:52.326Z,41.23
2023-04-05T02:46:18.776Z,41.20
2023-04-05T02:48:45.743Z,41.24
2023-04-05T02:51:14.218Z,40.99
2023-04-05T02:53:41.487Z,41.14
2023-04-05T02:56:13.597Z,41.18
2023-04-05T02:58:43.109Z,41.12
2023-04-05T03:01:10.354Z,41.06
2023-04-05T03:03:37.472Z,41.03
2023-04-05T03:06:10.772Z,41.03
2023-04-05T03:08:49.027Z,41.28
2023-04-05T03:11:19.860Z,41.10
2023-04-05T03:13:50.847Z,41.22
2023-04-05T03:16:36.260Z,41.16
2023-04-05T03:19:09.867Z,41.24
2023-04-05T03:21:41.010Z,41.24
2023-04-05T03:24:19.004Z,41.22
2023-04-05T03:26:45.422Z,41.32
2023-04-05T03:29:13.036Z,41.16
2023-04-05T03:31:39.534Z,41.31
2023-04-05T03:34:08.915Z,41.14
2023-04-05T03:36:43.016Z,41.09
2023-04-05T03:39:20.991Z,41.21
2023-04-05T03:41:47.963Z,41.21
2023-04-05T03:44:14.333Z,41.16
2023-04-05T03:46:40.713Z,41.23
2023-04-05T03:49:07.600Z,41.13
2023-04-05T03:51:33.981Z,41.17
2023-04-05T03:54:00.403Z,41.17
2023-04-05T03:56:30.700Z,41.37
2023-04-05T03:59:01.195Z,41.20
2023-04-05T04:01:28.771Z,41.35
2023-04-05T04:03:55.244Z,41.22
2023-04-05T04:06:27.119Z,41.22
2023-04-05T04:08:53.617Z,41.23
2023-04-05T04:11:19.937Z,41.22
2023-04-05T04:13:47.338Z,41.09
2023-04-05T04:16:32.809Z,41.18
2023-04-05T04:19:28.111Z,41.23
2023-04-05T04:22:04.331Z,41.32
2023-04-05T04:25:09.795Z,41.12
2023-04-05T04:28:06.779Z,41.29
2023-04-05T04:30:58.657Z,41.12
2023-04-05T04:33:49.540Z,41.08
2023-04-05T04:36:35.116Z,41.33
2023-04-05T04:39:44.489Z,41.27
2023-04-05T04:42:26.576Z,41.24
2023-04-05T04:45:06.309Z,41.31
2023-04-05T04:48:04.980Z,41.32
2023-04-05T04:50:39.136Z,41.26
2023-04-05T04:53:05.495Z,41.41
2023-04-05T04:55:33.390Z,38.70
2023-04-05T04:57:59.788Z,32.93
2023-04-05T05:00:26.138Z,35.28
2023-04-05T05:02:53.428Z,36.59
2023-04-05T05:05:23.135Z,37.52
2023-04-05T05:07:49.770Z,38.21
2023-04-05T05:10:16.385Z,38.53
2023-04-05T05:12:42.956Z,38.81
2023-04-05T05:15:11.527Z,38.80
2023-04-05T05:17:39.307Z,39.06
2023-04-05T05:20:09.536Z,39.00
2023-04-05T05:22:36.467Z,39.26
2023-04-05T05:25:03.301Z,39.44
2023-04-05T05:27:29.648Z,39.52
2023-04-05T05:29:56.718Z,39.56
2023-04-05T05:32:23.123Z,39.62
2023-04-05T05:34:49.449Z,39.76
2023-04-05T05:37:17.112Z,39.88
2023-04-05T05:39:46.134Z,39.96
2023-04-05T05:42:12.463Z,40.15
2023-04-05T05:44:38.829Z,40.10
2023-04-05T05:47:05.320Z,40.20
2023-04-05T05:49:31.662Z,40.22
2023-04-05T05:51:58.005Z,40.16
2023-04-05T05:54:24.842Z,40.30
2023-04-05T05:56:51.299Z,40.34
2023-04-05T05:59:17.816Z,40.40
2023-04-05T06:01:46.470Z,40.49
2023-04-05T06:04:13.295Z,40.56
2023-04-05T06:06:40.569Z,40.44
2023-04-05T06:09:06.889Z,40.51
2023-04-05T06:11:34.205Z,40.47
2023-04-05T06:14:00.800Z,40.47
2023-04-05T06:16:27.370Z,40.47
2023-04-05T06:18:55.542Z,40.57
2023-04-05T06:21:21.869Z,40.59
2023-04-05T06:23:48.216Z,40.58
2023-04-05T06:26:22.926Z,40.78
2023-04-05T06:28:49.527Z,40.73
2023-04-05T06:31:16.434Z,40.72
2023-04-05T06:33:43.213Z,40.77
2023-04-05T06:36:09.733Z,40.86
2023-04-05T06:38:36.676Z,40.75
2023-04-05T06:41:03.026Z,40.82
2023-04-05T06:43:29.343Z,40.59
2023-04-05T06:45:56.112Z,40.68
2023-04-05T06:48:22.490Z,40.60
2023-04-05T06:50:56.656Z,40.83
2023-04-05T06:53:22.996Z,40.98
2023-04-05T06:55:50.812Z,40.83
2023-04-05T06:58:17.200Z,40.78
2023-04-05T07:00:43.532Z,40.94
2023-04-05T07:03:10.050Z,40.90
2023-04-05T07:05:36.565Z,40.82
2023-04-05T07:08:03.386Z,40.76
2023-04-05T07:10:29.726Z,40.83
2023-04-05T07:12:56.249Z,40.85
2023-04-05T07:15:22.789Z,40.81
2023-04-05T07:17:49.231Z,40.91
2023-04-05T07:20:16.213Z,40.92
2023-04-05T07:22:42.537Z,40.88
2023-04-05T07:25:09.744Z,40.93
2023-04-05T07:27:36.261Z,40.99
2023-04-05T07:30:02.615Z,40.88
2023-04-05T07:32:29.058Z,41.03
2023-04-05T07:34:56.754Z,40.98
2023-04-05T07:37:23.305Z,40.97
2023-04-05T07:39:49.670Z,40.77
2023-04-05T07:42:17.767Z,40.94
2023-04-05T07:44:44.093Z,41.04
2023-04-05T07:47:10.965Z,40.97
2023-04-05T07:49:37.931Z,40.94
2023-04-05T07:52:04.399Z,41.14
2023-04-05T07:54:33.732Z,41.00
2023-04-05T07:57:00.997Z,41.08
2023-04-05T07:59:27.407Z,41.22
2023-04-05T08:01:57.079Z,41.09
2023-04-05T08:04:28.180Z,41.15
2023-04-05T08:06:54.503Z,41.11
2023-04-05T08:09:21.302Z,41.08
2023-04-05T08:11:47.637Z,41.16
2023-04-05T08:14:14.014Z,41.24
2023-04-05T08:16:40.587Z,41.12
2023-04-05T08:19:06.977Z,41.09
2023-04-05T08:21:33.798Z,41.40
2023-04-05T08:24:00.614Z,41.40
2023-04-05T08:26:26.950Z,41.30
2023-04-05T08:28:53.304Z,41.22
2023-04-05T08:31:20.754Z,41.29
2023-04-05T08:33:47.099Z,41.31
2023-04-05T08:36:13.463Z,41.18
2023-04-05T08:38:39.779Z,41.38
2023-04-05T08:41:14.308Z,41.32
2023-04-05T08:44:02.206Z,41.41
2023-04-05T08:46:31.919Z,41.48
2023-04-05T08:48:58.456Z,41.37
2023-04-05T08:51:25.834Z,41.34
2023-04-05T08:53:52.180Z,41.22
2023-04-05T08:56:24.884Z,41.33
2023-04-05T08:58:58.583Z,41.47
2023-04-05T09:01:24.957Z,41.39
2023-04-05T09:03:51.346Z,41.30
2023-04-05T09:06:17.723Z,41.29
2023-04-05T09:08:44.050Z,41.36
2023-04-05T09:11:11.681Z,41.41
2023-04-05T09:13:38.010Z,41.34
2023-04-05T09:16:04.339Z,41.46
2023-04-05T09:18:31.972Z,41.51
2023-04-05T09:21:02.934Z,41.32
2023-04-05T09:23:29.277Z,41.50
2023-04-05T09:25:55.823Z,41.36
2023-04-05T09:28:22.160Z,41.34
2023-04-05T09:30:48.529Z,41.38
2023-04-05T09:33:15.873Z,41.47
2023-04-05T09:35:42.257Z,41.51
2023-04-05T09:38:08.597Z,41.34
2023-04-05T09:40:43.669Z,41.52
2023-04-05T09:43:13.272Z,41.44
2023-04-05T09:45:41.470Z,41.39
2023-04-05T09:48:07.884Z,41.40
2023-04-05T09:50:34.253Z,41.45
2023-04-05T09:53:07.725Z,41.34
2023-04-05T09:55:34.115Z,41.30
2023-04-05T09:58:00.498Z,41.32
2023-04-05T10:00:26.831Z,41.55
2023-04-05T10:02:56.259Z,41.57
2023-04-05T10:05:29.002Z,41.43
2023-04-05T10:07:55.704Z,41.34
2023-04-05T10:10:22.148Z,41.57
2023-04-05T10:12:48.468Z,41.54
2023-04-05T10:15:15.522Z,41.67
2023-04-05T10:17:49.334Z,41.58
2023-04-05T10:20:16.274Z,41.56
2023-04-05T10:22:45.493Z,41.59
2023-04-05T10:25:20.565Z,41.59
2023-04-05T10:27:53.241Z,41.52
2023-04-05T10:30:19.670Z,41.69
2023-04-05T10:33:04.765Z,41.70
2023-04-05T10:35:33.924Z,41.67
2023-04-05T10:38:11.658Z,41.68
2023-04-05T10:40:37.995Z,41.48
2023-04-05T10:43:04.315Z,41.65
2023-04-05T10:45:31.247Z,41.53
2023-04-05T10:47:59.691Z,41.69
2023-04-05T10:50:26.321Z,41.65
2023-04-05T10:52:53.488Z,41.63
2023-04-05T10:55:20.297Z,41.64
2023-04-05T10:57:46.764Z,41.71
2023-04-05T11:00:13.347Z,41.64
2023-04-05T11:02:39.763Z,41.75
2023-04-05T11:05:06.787Z,41.76
2023-04-05T11:07:42.494Z,41.61
2023-04-05T11:10:08.816Z,41.64
2023-04-05T11:12:47.277Z,41.67
2023-04-05T11:15:27.567Z,41.74
2023-04-05T11:18:12.571Z,41.73
2023-04-05T11:20:42.583Z,41.70
2023-04-05T11:23:09.547Z,41.64
2023-04-05T11:25:39.855Z,41.61
2023-04-05T11:28:06.359Z,41.65
2023-04-05T11:30:48.687Z,41.77
2023-04-05T11:33:33.660Z,41.76
2023-04-05T11:36:03.112Z,41.73
2023-04-05T11:38:29.527Z,41.85
2023-04-05T11:41:17.746Z,41.70
2023-04-05T11:43:44.672Z,42.04
2023-04-05T11:46:11.099Z,41.79
2023-04-05T11:48:37.551Z,41.72
2023-04-05T11:51:10.526Z,41.71
2023-04-05T11:53:37.129Z,41.78
2023-04-05T11:56:06.974Z,41.86
2023-04-05T11:58:33.305Z,42.06
2023-04-05T12:01:03.185Z,41.86
2023-04-05T12:03:29.764Z,42.02
2023-04-05T12:05:56.946Z,42.27
2023-04-05T12:08:23.278Z,42.03
2023-04-05T12:10:58.698Z,42.24
2023-04-05T12:13:29.103Z,42.24
2023-04-05T12:15:57.386Z,42.27
2023-04-05T12:18:24.753Z,42.47
2023-04-05T12:20:51.090Z,39.67
2023-04-05T12:23:17.580Z,34.49
2023-04-05T12:25:49.962Z,35.13
2023-04-05T12:28:16.308Z,35.06
2023-04-05T12:30:57.468Z,36.19
2023-04-05T12:33:27.364Z,38.26
2023-04-05T12:35:53.728Z,38.28
2023-04-05T12:38:20.179Z,38.18
2023-04-05T12:40:46.521Z,38.33
2023-04-05T12:43:19.731Z,38.29
2023-04-05T12:45:46.886Z,38.37
2023-04-05T12:48:13.696Z,38.79
2023-04-05T12:50:46.561Z,38.83
2023-04-05T12:53:17.768Z,36.56
2023-04-05T12:55:45.861Z,37.85
2023-04-05T12:58:13.268Z,37.75
2023-04-05T13:00:39.630Z,37.89
2023-04-05T13:03:06.093Z,37.04
2023-04-05T13:05:32.555Z,36.40
2023-04-05T13:07:59.157Z,35.92
2023-04-05T13:10:25.812Z,36.04
2023-04-05T13:12:52.223Z,35.95
2023-04-05T13:15:18.687Z,36.17
2023-04-05T13:17:50.233Z,35.60
2023-04-05T13:20:17.598Z,36.42
2023-04-05T13:22:43.936Z,36.76
2023-04-05T13:25:10.323Z,36.52
2023-04-05T13:27:36.678Z,36.59
2023-04-05T13:30:03.015Z,36.60
2023-04-05T13:32:29.414Z,36.97
2023-04-05T13:34:56.051Z,36.94
2023-04-05T13:37:22.362Z,37.13
2023-04-05T13:39:48.679Z,37.16
2023-04-05T13:42:15.010Z,37.16
2023-04-05T13:44:41.734Z,37.32
2023-04-05T13:47:08.352Z,37.46
2023-04-05T13:49:34.721Z,37.49
2023-04-05T13:52:01.038Z,37.72
2023-04-05T13:54:27.381Z,37.72
2023-04-05T13:56:53.688Z,37.76
2023-04-05T13:59:20.457Z,37.71
2023-04-05T14:01:46.940Z,37.84
2023-04-05T14:04:13.345Z,37.97
2023-04-05T14:06:39.691Z,37.95
2023-04-05T14:09:06.032Z,38.19
2023-04-05T14:11:32.357Z,37.93
2023-04-05T14:13:58.675Z,38.20
2023-04-05T14:16:25.088Z,38.16
2023-04-05T14:18:51.523Z,38.20
2023-04-05T14:21:17.874Z,38.27
2023-04-05T14:23:44.190Z,38.33
2023-04-05T14:26:10.672Z,38.34
2023-04-05T14:28:37.001Z,38.54
2023-04-05T14:31:03.330Z,38.34
2023-04-05T14:33:29.650Z,38.60
2023-04-05T14:35:56.131Z,38.52
2023-04-05T14:38:22.543Z,38.49
2023-04-05T14:40:48.869Z,38.67
2023-04-05T14:43:15.383Z,38.89
2023-04-05T14:45:41.827Z,38.71
2023-04-05T14:48:08.174Z,38.72
2023-04-05T14:50:34.499Z,38.93
2023-04-05T14:53:01.570Z,39.02
2023-04-05T14:55:28.217Z,39.02
2023-04-05T14:57:54.531Z,39.12
2023-04-05T15:00:20.894Z,39.03
2023-04-05T15:02:47.271Z,39.21
2023-04-05T15:05:13.667Z,39.10
2023-04-05T15:07:40.110Z,39.12
2023-04-05T15:10:06.495Z,39.16
2023-04-05T15:12:32.883Z,39.33
2023-04-05T15:14:59.209Z,39.29
2023-04-05T15:17:25.723Z,39.30
2023-04-05T15:19:52.045Z,39.32
2023-04-05T15:22:20.372Z,39.33
2023-04-05T15:24:46.707Z,39.40
2023-04-05T15:27:13.019Z,39.47
2023-04-05T15:29:39.343Z,39.53
2023-04-05T15:32:05.669Z,39.52
2023-04-05T15:34:31.988Z,39.64
2023-04-05T15:36:58.320Z,39.52
2023-04-05T15:39:24.974Z,39.44
2023-04-05T15:41:51.454Z,39.53
2023-04-05T15:44:17.781Z,39.58
2023-04-05T15:46:44.208Z,39.76
2023-04-05T15:49:13.609Z,39.58
2023-04-05T15:51:41.111Z,39.70
2023-04-05T15:54:07.444Z,39.91
2023-04-05T15:56:33.800Z,39.73
2023-04-05T15:59:00.447Z,39.68
2023-04-05T16:01:27.164Z,39.95
2023-04-05T16:03:53.708Z,39.99
2023-04-05T16:06:22.015Z,39.74
2023-04-05T16:08:48.408Z,39.91
2023-04-05T16:11:14.718Z,40.03
2023-04-05T16:13:41.042Z,39.85
2023-04-05T16:16:07.485Z,39.95
2023-04-05T16:18:34.338Z,40.03
2023-04-05T16:21:00.664Z,40.04
2023-04-05T16:23:27.008Z,40.14
2023-04-05T16:25:53.343Z,40.19
2023-04-05T16:28:19.674Z,40.14
2023-04-05T16:30:48.212Z,40.07
2023-04-05T16:33:14.701Z,40.24
2023-04-05T16:35:41.299Z,40.30
2023-04-05T16:38:07.741Z,40.29
2023-04-05T16:40:34.057Z,40.33
2023-04-05T16:43:00.388Z,40.30
2023-04-05T16:45:28.628Z,40.37
2023-04-05T16:47:54.984Z,40.37
2023-04-05T16:50:21.339Z,40.62
2023-04-05T16:52:47.680Z,40.44
2023-04-05T16:55:14.058Z,40.44
2023-04-05T16:57:40.427Z,40.35
2023-04-05T17:00:06.967Z,40.33
2023-04-05T17:02:33.450Z,40.30
2023-04-05T17:04:59.853Z,40.26
2023-04-05T17:07:26.333Z,40.56
2023-04-05T17:09:52.809Z,40.68
2023-04-05T17:12:20.030Z,40.38
2023-04-05T17:14:46.368Z,39.79
2023-04-05T17:17:12.698Z,40.37
2023-04-05T17:19:39.036Z,40.25
2023-04-05T17:22:05.372Z,40.44
2023-04-05T17:24:34.822Z,40.26
2023-04-05T17:27:01.166Z,40.44
2023-04-05T17:29:30.371Z,40.39
2023-04-05T17:31:57.205Z,40.48
2023-04-05T17:34:23.543Z,40.38
2023-04-05T17:36:49.874Z,40.63
2023-04-05T17:39:16.224Z,41.39
2023-04-05T17:41:42.572Z,42.83
2023-04-05T17:44:08.934Z,41.47
2023-04-05T17:46:41.678Z,41.28
2023-04-05T17:49:12.894Z,41.28
2023-04-05T17:51:39.292Z,41.08
2023-04-05T17:54:05.675Z,41.01
2023-04-05T17:56:32.012Z,41.00
2023-04-05T17:58:58.367Z,41.02
2023-04-05T18:01:24.771Z,41.16
2023-04-05T18:03:51.249Z,41.04
2023-04-05T18:06:17.956Z,40.97
2023-04-05T18:08:44.329Z,41.09
2023-04-05T18:11:10.672Z,40.96
2023-04-05T18:13:37.003Z,41.01
2023-04-05T18:16:03.364Z,40.99
2023-04-05T18:18:29.954Z,41.08
2023-04-05T18:20:56.377Z,41.05
2023-04-05T18:23:24.655Z,41.07
2023-04-05T18:25:51.380Z,41.00
2023-04-05T18:28:22.987Z,40.93
2023-04-05T18:30:50.478Z,40.97
2023-04-05T18:33:17.449Z,41.10
2023-04-05T18:35:48.212Z,41.19
2023-04-05T18:38:14.550Z,41.21
2023-04-05T18:40:40.923Z,40.93
2023-04-05T18:43:07.523Z,40.97
2023-04-05T18:45:33.879Z,41.30
2023-04-05T18:48:00.331Z,41.16
2023-04-05T18:50:26.717Z,41.07
2023-04-05T18:52:53.035Z,41.18
2023-04-05T18:55:20.130Z,40.86
2023-04-05T18:57:46.473Z,40.97
2023-04-05T19:00:12.910Z,41.11
2023-04-05T19:02:39.363Z,41.11
2023-04-05T19:05:06.085Z,41.14
2023-04-05T19:07:32.419Z,41.21
2023-04-05T19:09:58.735Z,41.03
2023-04-05T19:12:25.074Z,41.16
2023-04-05T19:14:51.428Z,41.17
2023-04-05T19:17:17.769Z,41.20
2023-04-05T19:19:44.090Z,41.13
2023-04-05T19:22:11.209Z,41.30
2023-04-05T19:24:39.376Z,41.15
2023-04-05T19:27:05.924Z,41.12
2023-04-05T19:29:33.952Z,41.17
2023-04-05T19:32:00.284Z,41.17
2023-04-05T19:34:26.630Z,41.25
2023-04-05T19:36:52.964Z,41.26
2023-04-05T19:39:21.458Z,41.35
2023-04-05T19:41:48.476Z,41.31
2023-04-05T19:44:33.749Z,41.26
2023-04-05T19:47:01.372Z,41.28
2023-04-05T19:49:29.340Z,41.38
2023-04-05T19:51:56.172Z,41.21
2023-04-05T19:54:22.583Z,41.31
2023-04-05T19:56:48.921Z,41.28
2023-04-05T19:59:29.169Z,41.16
2023-04-05T20:01:55.753Z,41.26
2023-04-05T20:04:22.682Z,41.30
2023-04-05T20:06:55.699Z,41.38
2023-04-05T20:09:25.381Z,41.38
2023-04-05T20:11:52.020Z,41.31
2023-04-05T20:14:26.653Z,41.36
2023-04-05T20:16:53.036Z,41.24
2023-04-05T20:19:19.409Z,41.15
2023-04-05T20:21:45.763Z,41.38
2023-04-05T20:24:12.410Z,41.32
2023-04-05T20:26:38.770Z,41.45
2023-04-05T20:29:07.339Z,41.44
2023-04-05T20:31:34.510Z,41.29
2023-04-05T20:34:10.632Z,41.29
2023-04-05T20:36:37.750Z,41.41
2023-04-05T20:39:04.563Z,41.33
2023-04-05T20:41:31.664Z,41.50
2023-04-05T20:43:58.285Z,41.47
2023-04-05T20:46:24.802Z,41.35
2023-04-05T20:48:53.531Z,41.39
2023-04-05T20:51:19.878Z,41.26
2023-04-05T20:53:46.456Z,41.27
2023-04-05T20:56:12.812Z,41.41
2023-04-05T20:58:39.478Z,41.34
2023-04-05T21:01:05.956Z,41.30
2023-04-05T21:03:32.915Z,41.50
2023-04-05T21:05:59.509Z,41.38
2023-04-05T21:08:26.319Z,41.39
2023-04-05T21:10:53.830Z,41.47
2023-04-05T21:13:20.894Z,41.45
2023-04-05T21:15:47.553Z,41.43
2023-04-05T21:18:13.949Z,41.52
2023-04-05T21:20:40.326Z,41.55
2023-04-05T21:23:07.585Z,41.46
2023-04-05T21:25:34.026Z,41.52
2023-04-05T21:28:00.748Z,41.41
2023-04-05T21:30:27.515Z,41.65
2023-04-05T21:32:54.049Z,41.47
2023-04-05T21:35:21.100Z,41.51
2023-04-05T21:37:47.435Z,41.60
2023-04-05T21:40:13.792Z,41.42
2023-04-05T21:42:41.100Z,41.44
2023-04-05T21:45:08.010Z,41.57
2023-04-05T21:47:34.393Z,41.45
2023-04-05T21:50:00.862Z,41.59
2023-04-05T21:52:27.179Z,41.58
2023-04-05T21:54:53.527Z,41.45
2023-04-05T21:57:19.866Z,41.47
2023-04-05T21:59:46.199Z,41.48
2023-04-05T22:02:12.598Z,41.31
2023-04-05T22:04:38.982Z,41.56
2023-04-05T22:07:05.397Z,41.59
2023-04-05T22:09:31.784Z,41.46
2023-04-05T22:11:58.711Z,41.40
2023-04-05T22:14:25.385Z,41.49
2023-04-05T22:16:51.959Z,41.35
2023-04-05T22:19:18.342Z,41.39
2023-04-05T22:21:44.669Z,41.38
2023-04-05T22:24:11.273Z,41.30
2023-04-05T22:26:38.141Z,41.28
2023-04-05T22:29:04.466Z,41.50
2023-04-05T22:31:30.954Z,41.42
2023-04-05T22:33:57.320Z,41.42
2023-04-05T22:36:23.699Z,41.29
2023-04-05T22:38:51.684Z,41.14
2023-04-05T22:41:19.992Z,41.14
2023-04-05T22:43:46.317Z,41.23
2023-04-05T22:46:12.957Z,41.38
2023-04-05T22:48:39.338Z,41.25
2023-04-05T22:51:07.662Z,41.33
2023-04-05T22:53:33.996Z,41.28
2023-04-05T22:56:00.383Z,41.14
2023-04-05T22:58:29.536Z,41.20
2023-04-05T23:00:56.353Z,41.26
2023-04-05T23:03:22.691Z,41.19
2023-04-05T23:05:52.019Z,41.11
2023-04-05T23:08:18.374Z,41.13
2023-04-05T23:10:44.706Z,41.08
2023-04-05T23:13:11.614Z,41.23
2023-04-05T23:15:37.979Z,41.11
2023-04-05T23:18:04.384Z,41.09
2023-04-05T23:20:30.860Z,41.38
2023-04-05T23:22:57.211Z,41.02
2023-04-05T23:25:23.548Z,41.15
2023-04-05T23:27:49.915Z,41.18
2023-04-05T23:30:16.263Z,41.08
2023-04-05T23:32:42.631Z,41.05
2023-04-05T23:35:09.058Z,41.28
2023-04-05T23:37:35.474Z,41.33
2023-04-05T23:40:01.881Z,41.48
2023-04-05T23:42:28.232Z,41.39
2023-04-05T23:44:54.616Z,41.25
2023-04-05T23:47:20.945Z,41.30
2023-04-05T23:49:47.285Z,41.33
2023-04-05T23:52:13.618Z,41.33
2023-04-05T23:54:39.978Z,41.37
2023-04-05T23:57:06.436Z,41.36
2023-04-05T23:59:32.800Z,41.34
